createdAt,value
2023-05-16T00:03:42.805Z,6.30
2023-05-16T00:24:07.275Z,6.20
2023-05-16T00:34:09.665Z,6.53
2023-05-16T00:44:12.340Z,6.70
2023-05-16T00:54:15.246Z,7.47
2023-05-16T01:04:18.068Z,8.93
2023-05-16T01:14:29.216Z,8.10
2023-05-16T01:25:19.070Z,7.97
2023-05-16T01:35:21.709Z,8.27
2023-05-16T01:45:30.228Z,8.95
2023-05-16T01:55:49.622Z,9.07
2023-05-16T02:05:52.656Z,8.30
2023-05-16T02:15:54.816Z,8.13
2023-05-16T02:25:59.491Z,8.98
2023-05-16T02:36:08.946Z,9.50
2023-05-16T02:46:28.726Z,9.73
2023-05-16T02:56:36.259Z,9.48
2023-05-16T03:06:38.422Z,9.80
2023-05-16T03:16:44.132Z,8.83
2023-05-16T03:26:46.398Z,7.90
2023-05-16T03:36:51.185Z,6.97
2023-05-16T03:46:56.420Z,6.50
2023-05-16T03:57:01.734Z,6.47
2023-05-16T04:07:04.082Z,6.80
2023-05-16T04:17:08.662Z,7.22
2023-05-16T04:27:11.058Z,6.38
2023-05-16T04:37:13.418Z,6.35
2023-05-16T04:47:17.912Z,6.00
2023-05-16T04:57:24.975Z,6.47
2023-05-16T05:07:29.535Z,5.22
2023-05-16T05:17:31.733Z,4.90
2023-05-16T05:27:36.491Z,5.40
2023-05-16T05:37:46.261Z,6.60
2023-05-16T05:47:51.364Z,5.50
2023-05-16T05:57:53.666Z,6.80
2023-05-16T06:07:58.134Z,6.75
2023-05-16T06:18:01.140Z,7.80
2023-05-16T06:28:05.498Z,7.85
2023-05-16T06:38:07.577Z,7.60
2023-05-16T06:48:09.765Z,8.00
2023-05-16T06:58:14.697Z,7.30
2023-05-16T07:08:19.480Z,6.30
2023-05-16T07:18:21.630Z,7.32
2023-05-16T07:28:28.796Z,7.30
2023-05-16T07:38:31.144Z,5.88
2023-05-16T07:48:42.942Z,3.60
2023-05-16T07:58:51.179Z,4.18
2023-05-16T08:08:53.513Z,4.38
2023-05-16T08:18:55.877Z,3.78
2023-05-16T08:28:58.151Z,3.35
2023-05-16T08:39:00.498Z,3.47
2023-05-16T08:49:05.112Z,3.40
2023-05-16T08:59:13.518Z,2.70
2023-05-16T09:09:15.891Z,3.15
2023-05-16T09:19:18.200Z,3.38
2023-05-16T09:29:23.069Z,3.28
2023-05-16T09:39:34.973Z,2.20
2023-05-16T09:49:40.133Z,2.10
2023-05-16T09:59:43.013Z,2.35
2023-05-16T10:09:53.693Z,2.55
2023-05-16T10:19:58.887Z,2.60
2023-05-16T10:30:03.884Z,2.50
2023-05-16T10:50:34.197Z,2.78
2023-05-16T11:00:36.332Z,2.20
2023-05-16T11:10:38.573Z,2.47
2023-05-16T11:20:41.562Z,2.00
2023-05-16T11:30:57.928Z,2.33
2023-05-16T11:41:07.326Z,2.17
2023-05-16T11:51:12.118Z,2.33
2023-05-16T12:01:14.613Z,3.53
2023-05-16T12:11:19.532Z,2.70
2023-05-16T12:21:23.957Z,2.55
2023-05-16T12:31:31.557Z,2.67
2023-05-16T12:41:42.211Z,2.25
2023-05-16T12:51:52.807Z,2.88
2023-05-16T13:01:57.517Z,3.08
2023-05-16T13:12:02.311Z,2.70
2023-05-16T13:22:05.908Z,3.58
2023-05-16T13:32:13.310Z,2.33
2023-05-16T13:42:18.033Z,2.60
2023-05-16T13:52:24.054Z,2.53
2023-05-16T14:02:29.046Z,2.50
2023-05-16T14:12:36.605Z,2.60
2023-05-16T14:22:41.320Z,2.10
2023-05-16T14:32:48.406Z,1.88
2023-05-16T14:42:55.309Z,1.92
2023-05-16T14:53:00.320Z,1.90
2023-05-16T15:03:02.917Z,2.38
2023-05-16T15:13:07.458Z,2.10
2023-05-16T15:23:10.725Z,2.25
2023-05-16T15:33:13.962Z,2.33
2023-05-16T15:43:17.484Z,2.22
2023-05-16T15:53:20.067Z,2.65
2023-05-16T16:03:22.778Z,1.98
2023-05-16T16:13:25.264Z,1.90
2023-05-16T16:23:27.436Z,1.65
2023-05-16T16:33:32.358Z,1.90
2023-05-16T16:43:37.178Z,1.98
2023-05-16T16:53:42.088Z,2.55
2023-05-16T17:03:46.703Z,2.60
2023-05-16T17:13:52.280Z,1.88
2023-05-16T17:23:55.429Z,2.55
2023-05-16T17:33:57.708Z,1.90
2023-05-16T17:44:05.397Z,2.25
2023-05-16T17:54:09.649Z,2.20
2023-05-16T18:04:18.619Z,3.00
2023-05-16T18:14:23.348Z,3.30
2023-05-16T18:24:25.549Z,2.80
2023-05-16T18:34:30.389Z,2.95
2023-05-16T18:44:32.931Z,3.30
2023-05-16T18:54:38.232Z,4.00
2023-05-16T19:04:40.867Z,2.80
2023-05-16T19:14:43.148Z,3.28
2023-05-16T19:24:47.860Z,3.20
2023-05-16T19:34:53.105Z,4.85
2023-05-16T19:44:58.088Z,3.92
2023-05-16T19:55:00.398Z,3.78
2023-05-16T20:05:02.710Z,3.47
2023-05-16T20:15:08.572Z,3.65
2023-05-16T20:25:13.360Z,3.60
2023-05-16T20:35:18.460Z,4.40
2023-05-16T20:45:20.890Z,3.97
2023-05-16T20:55:26.339Z,4.70
2023-05-16T21:05:28.943Z,4.88
2023-05-16T21:15:31.771Z,5.10
2023-05-16T21:25:34.256Z,4.78
2023-05-16T21:35:43.507Z,5.03
2023-05-16T21:45:50.498Z,4.97
2023-05-16T21:55:54.888Z,6.15
2023-05-16T22:05:59.579Z,6.60
2023-05-16T22:16:07.777Z,5.95
2023-05-16T22:26:12.195Z,6.28
2023-05-16T22:36:14.308Z,5.88
2023-05-16T22:46:18.983Z,7.20
2023-05-16T22:56:23.432Z,6.30
2023-05-16T23:06:25.621Z,6.47
2023-05-16T23:16:27.924Z,6.93
2023-05-16T23:26:32.097Z,8.57
2023-05-16T23:36:36.513Z,8.35
2023-05-16T23:46:41.446Z,9.68
2023-05-16T23:56:48.555Z,10.18
